Time;durP1;ratioP1;P1;durP2;ratioP2;P2;SDS_P1;SDS_P2;PMS_P1;PMS_P2;Temp;Humidity;BMP_temperature;BMP_pressure;BME280_temperature;BME280_humidity;BME280_pressure;Samples;Min_cycle;Max_cycle;Signal;HPM_P1;HPM_P2
2021/06/07 00:01:34;;;;;;;;;;;;;;;23.39;55.46;102208.75;2198369;39;115075;-53
2021/06/07 00:03:05;;;;;;;;;;;;;;;23.38;55.21;102198.63;2192696;39;115603;-53
2021/06/07 00:04:37;;;;;;;;;;;;;;;23.39;55.92;102202.28;2196737;39;115659;-53
2021/06/07 00:06:09;;;;;;;;;;;;;;;23.38;55.49;102195.81;2199243;39;115326;-54
2021/06/07 00:07:41;;;;;;;;;;;;;;;23.40;55.70;102204.78;2197647;39;113665;-53
2021/06/07 00:09:13;;;;;;;;;;;;;;;23.39;55.67;102208.75;2198179;39;113674;-53
2021/06/07 00:10:45;;;;;;;;;;;;;;;23.40;55.12;102204.78;2197608;39;114033;-53
2021/06/07 00:12:17;;;;;;;;;;;;;;;23.40;55.25;102201.13;2198496;39;114019;-53
2021/06/07 00:13:49;;;;;;;;;;;;;;;23.42;55.54;102202.53;2192436;39;114225;-53
2021/06/07 00:15:22;;;;;;;;;;;;;;;23.43;55.21;102197.75;2193064;39;114002;-53
2021/06/07 00:16:54;;;;;;;;;;;;;;;23.42;55.38;102201.69;2195094;39;116514;-53
2021/06/07 00:18:26;;;;;;;;;;;;;;;23.42;55.55;102205.34;2201800;39;114106;-54
2021/06/07 00:19:58;;;;;;;;;;;;;;;23.45;55.22;102199.13;2191769;39;115419;-58
2021/06/07 00:21:30;;;;;;;;;;;;;;;23.44;55.36;102197.44;2199867;39;113791;-53
2021/06/07 00:23:35;;;;;;;;;;;;;;;23.42;55.58;102194.06;2200032;39;113997;-53
2021/06/07 00:25:09;;;;;;;;;;;;;;;23.41;55.59;102189.56;2203886;39;113922;-53
2021/06/07 00:26:41;;;;;;;;;;;;;;;23.42;55.48;102194.06;2205013;39;113918;-53
2021/06/07 00:28:14;;;;;;;;;;;;;;;23.42;55.43;102196.03;2204891;39;113644;-53
2021/06/07 00:29:46;;;;;;;;;;;;;;;23.42;55.20;102191.25;2208069;39;113844;-53
2021/06/07 00:31:18;;;;;;;;;;;;;;;23.41;55.38;102198.03;2198545;39;115321;-53
2021/06/07 00:32:50;;;;;;;;;;;;;;;23.41;55.82;102189.56;2204017;39;115043;-53
2021/06/07 00:34:26;;;;;;;;;;;;;;;23.40;56.21;102190.69;2200614;39;114302;-59
2021/06/07 00:35:59;;;;;;;;;;;;;;;23.41;55.50;102192.38;2202614;39;113991;-53
2021/06/07 00:37:31;;;;;;;;;;;;;;;23.41;55.55;102192.38;2201974;39;114804;-53
2021/06/07 00:39:06;;;;;;;;;;;;;;;23.43;55.96;102194.91;2198952;39;115138;-53
2021/06/07 00:40:38;;;;;;;;;;;;;;;23.44;55.99;102194.63;2200696;39;114959;-53
2021/06/07 00:42:10;;;;;;;;;;;;;;;23.45;55.64;102187.84;2202933;39;115355;-54
2021/06/07 00:43:43;;;;;;;;;;;;;;;23.47;55.51;102198.84;2197666;39;114668;-53
2021/06/07 00:45:20;;;;;;;;;;;;;;;23.48;55.43;102194.91;2200090;39;114909;-53
2021/06/07 00:46:52;;;;;;;;;;;;;;;23.47;55.81;102196.03;2201153;39;114799;-53
2021/06/07 00:48:24;;;;;;;;;;;;;;;23.47;56.16;102196.03;2204823;39;115806;-54
2021/06/07 00:49:56;;;;;;;;;;;;;;;23.47;56.00;102188.41;2204202;39;114973;-54
2021/06/07 00:51:28;;;;;;;;;;;;;;;23.49;55.44;102190.91;2206668;39;115008;-53
2021/06/07 00:53:02;;;;;;;;;;;;;;;23.49;55.75;102191.75;2203526;39;116145;-53
2021/06/07 00:54:35;;;;;;;;;;;;;;;23.47;55.35;102191.22;2204181;39;115611;-53
2021/06/07 00:56:09;;;;;;;;;;;;;;;23.48;55.69;102195.72;2200638;39;116267;-54
2021/06/07 00:57:41;;;;;;;;;;;;;;;23.49;55.74;102191.75;2200750;39;115589;-53
2021/06/07 00:59:16;;;;;;;;;;;;;;;23.48;55.21;102190.06;2206888;39;115832;-54
2021/06/07 01:00:48;;;;;;;;;;;;;;;23.48;55.72;102195.72;2204728;39;115336;-54
2021/06/07 01:02:20;;;;;;;;;;;;;;;23.49;55.74;102180.47;2201464;39;115587;-53
2021/06/07 01:03:55;;;;;;;;;;;;;;;23.47;55.69;102187.56;2203273;39;115677;-54
2021/06/07 01:05:27;;;;;;;;;;;;;;;23.46;55.74;102185.88;2204339;39;115287;-53
2021/06/07 01:06:59;;;;;;;;;;;;;;;23.45;55.81;102184.19;2199898;39;115598;-53
2021/06/07 01:08:31;;;;;;;;;;;;;;;23.46;55.48;102181.06;2201397;39;115549;-54
2021/06/07 01:10:03;;;;;;;;;;;;;;;23.49;55.21;102191.75;2195087;39;115522;-54
2021/06/07 01:11:36;;;;;;;;;;;;;;;23.51;55.05;102182.16;2201952;39;115540;-54
2021/06/07 01:13:08;;;;;;;;;;;;;;;23.50;55.02;102184.13;2206674;39;115614;-53
2021/06/07 01:14:40;;;;;;;;;;;;;;;23.48;55.54;102180.78;2197501;39;114000;-54
2021/06/07 01:16:13;;;;;;;;;;;;;;;23.48;55.54;102190.06;2200736;39;114151;-53
2021/06/07 01:17:46;;;;;;;;;;;;;;;23.48;55.05;102192.06;2203885;39;114078;-53
2021/06/07 01:19:18;;;;;;;;;;;;;;;23.45;55.47;102185.03;2203021;39;113999;-53
2021/06/07 01:20:52;;;;;;;;;;;;;;;23.46;55.11;102189.53;2199770;39;113855;-53
2021/06/07 01:22:24;;;;;;;;;;;;;;;23.47;55.35;102177.13;2204141;39;113788;-54
2021/06/07 01:23:57;;;;;;;;;;;;;;;23.48;54.98;102184.44;2197978;39;114415;-54
2021/06/07 01:25:30;;;;;;;;;;;;;;;23.47;55.07;102177.13;2199236;39;114196;-53
2021/06/07 01:27:03;;;;;;;;;;;;;;;23.45;55.42;102185.03;2200926;39;114021;-54
2021/06/07 01:28:35;;;;;;;;;;;;;;;23.47;55.41;102179.94;2203455;39;114087;-54
2021/06/07 01:30:10;;;;;;;;;;;;;;;23.47;55.05;102177.13;2202651;39;113679;-54
2021/06/07 01:31:42;;;;;;;;;;;;;;;23.46;55.13;102181.06;2196875;39;113702;-54
2021/06/07 01:33:15;;;;;;;;;;;;;;;23.48;54.98;102189.25;2197154;39;113749;-53
2021/06/07 01:34:47;;;;;;;;;;;;;;;23.47;55.00;102171.47;2204666;39;113959;-54
2021/06/07 01:36:19;;;;;;;;;;;;;;;23.49;54.88;102174.84;2203134;39;114848;-54
2021/06/07 01:37:52;;;;;;;;;;;;;;;23.51;55.45;102170.88;2203952;39;115192;-53
2021/06/07 01:39:27;;;;;;;;;;;;;;;23.52;55.16;102175.38;2204839;39;115921;-58
2021/06/07 01:41:01;;;;;;;;;;;;;;;23.52;54.79;102172.56;2203471;39;113815;-54
2021/06/07 01:42:33;;;;;;;;;;;;;;;23.48;53.85;102173.13;2204170;39;115076;-54
2021/06/07 01:44:05;;;;;;;;;;;;;;;23.45;54.15;102170.09;2190618;39;113843;-54
2021/06/07 01:45:38;;;;;;;;;;;;;;;23.46;54.64;102164.16;2201402;39;115048;-53
2021/06/07 01:47:10;;;;;;;;;;;;;;;23.45;54.90;102158.81;2204958;39;115006;-53
2021/06/07 01:48:42;;;;;;;;;;;;;;;23.45;54.83;102162.47;2203724;39;113985;-53
2021/06/07 01:50:14;;;;;;;;;;;;;;;23.42;55.15;102162.19;2199523;39;114765;-54
2021/06/07 01:51:46;;;;;;;;;;;;;;;23.42;55.03;102159.38;2201678;39;114989;-53
2021/06/07 01:53:19;;;;;;;;;;;;;;;23.42;55.09;102170.66;2195850;39;114787;-54
2021/06/07 01:54:51;;;;;;;;;;;;;;;23.42;55.28;102163.03;2195141;39;114941;-54
2021/06/07 01:56:23;;;;;;;;;;;;;;;23.42;54.91;102160.22;2195028;39;114972;-53
2021/06/07 01:57:55;;;;;;;;;;;;;;;23.42;54.96;102163.03;2196671;39;115665;-53
2021/06/07 01:59:27;;;;;;;;;;;;;;;23.44;54.87;102166.41;2202839;39;115537;-53
2021/06/07 02:01:02;;;;;;;;;;;;;;;23.42;54.95;102163.03;2203687;39;115592;-53
2021/06/07 02:02:34;;;;;;;;;;;;;;;23.41;55.04;102168.97;2205634;39;115667;-53
2021/06/07 02:04:06;;;;;;;;;;;;;;;23.44;54.99;102165.56;2204028;39;115486;-53
2021/06/07 02:05:39;;;;;;;;;;;;;;;23.41;54.99;102161.34;2203636;39;114423;-54
2021/06/07 02:07:11;;;;;;;;;;;;;;;23.41;55.13;102164.19;2202539;39;115782;-54
2021/06/07 02:08:43;;;;;;;;;;;;;;;23.42;55.48;102153.72;2203445;39;115525;-54
2021/06/07 02:10:16;;;;;;;;;;;;;;;23.40;55.67;102158.81;2203454;39;115193;-53
2021/06/07 02:11:48;;;;;;;;;;;;;;;23.41;55.11;102158.53;2204619;39;115663;-54
2021/06/07 02:13:20;;;;;;;;;;;;;;;23.45;54.65;102161.63;2204566;39;116166;-54
2021/06/07 02:14:52;;;;;;;;;;;;;;;23.44;55.05;102162.75;2196823;39;115565;-54
2021/06/07 02:16:26;;;;;;;;;;;;;;;23.44;55.26;102166.41;2200503;39;115924;-54
2021/06/07 02:18:00;;;;;;;;;;;;;;;23.42;55.31;102162.19;2203143;39;115062;-54
2021/06/07 02:19:32;;;;;;;;;;;;;;;23.42;55.57;102165.03;2185589;39;116788;-54
2021/06/07 02:21:06;;;;;;;;;;;;;;;23.42;55.24;102160.22;2195391;39;113706;-54
2021/06/07 02:22:41;;;;;;;;;;;;;;;23.43;55.31;102161.91;2199497;39;113913;-53
2021/06/07 02:24:14;;;;;;;;;;;;;;;23.43;55.36;102159.09;2202844;39;113934;-54
2021/06/07 02:25:46;;;;;;;;;;;;;;;23.43;55.32;102156.28;2204773;39;113783;-53
2021/06/07 02:27:18;;;;;;;;;;;;;;;23.46;55.19;102164.16;2196712;39;113980;-53
2021/06/07 02:28:52;;;;;;;;;;;;;;;23.46;55.51;102160.50;2200166;39;113819;-63
2021/06/07 02:30:26;;;;;;;;;;;;;;;23.44;55.24;102155.13;2203707;39;114183;-53
2021/06/07 02:31:58;;;;;;;;;;;;;;;23.44;55.37;102157.97;2203008;39;114080;-54
2021/06/07 02:33:30;;;;;;;;;;;;;;;23.43;55.67;102164.72;2200925;39;113972;-53
2021/06/07 02:35:05;;;;;;;;;;;;;;;23.44;55.37;102166.41;2201357;39;113999;-53
2021/06/07 02:36:38;;;;;;;;;;;;;;;23.47;55.40;102165.00;2195935;39;113833;-54
2021/06/07 02:38:11;;;;;;;;;;;;;;;23.46;55.30;102166.13;2195784;39;114102;-53
2021/06/07 02:39:43;;;;;;;;;;;;;;;23.46;55.57;102158.50;2196072;39;114231;-54
2021/06/07 02:41:15;;;;;;;;;;;;;;;23.45;55.36;102162.47;2199437;39;113859;-55
2021/06/07 02:42:47;;;;;;;;;;;;;;;23.46;55.75;102168.94;2197168;39;115013;-54
2021/06/07 02:44:20;;;;;;;;;;;;;;;23.45;55.50;102159.66;2196001;39;114820;-53
2021/06/07 02:45:52;;;;;;;;;;;;;;;23.46;55.67;102160.50;2191188;39;114360;-54
2021/06/07 02:47:24;;;;;;;;;;;;;;;23.46;55.41;102160.50;2197217;39;114830;-54
2021/06/07 02:48:56;;;;;;;;;;;;;;;23.48;55.75;102158.22;2204985;39;114686;-54
2021/06/07 02:50:30;;;;;;;;;;;;;;;23.48;55.32;102159.03;2200789;39;114138;-53
2021/06/07 02:52:02;;;;;;;;;;;;;;;23.46;55.49;102154.84;2202146;39;115056;-54
2021/06/07 02:53:34;;;;;;;;;;;;;;;23.47;55.50;102160.19;2194694;39;114837;-53
2021/06/07 02:55:06;;;;;;;;;;;;;;;23.43;55.82;102164.72;2201898;39;114817;-54
2021/06/07 02:56:38;;;;;;;;;;;;;;;23.45;56.29;102162.47;2197239;39;113829;-53
2021/06/07 02:58:10;;;;;;;;;;;;;;;23.46;55.81;102160.50;2194632;39;114090;-54
2021/06/07 02:59:42;;;;;;;;;;;;;;;23.44;55.92;102163.59;2194418;39;115251;-54
2021/06/07 03:01:14;;;;;;;;;;;;;;;23.46;55.72;102161.34;2198577;39;114294;-54
2021/06/07 03:02:46;;;;;;;;;;;;;;;23.48;56.11;102159.03;2208458;39;115053;-54
2021/06/07 03:04:18;;;;;;;;;;;;;;;23.48;56.17;102156.22;2206429;39;115496;-54
2021/06/07 03:05:51;;;;;;;;;;;;;;;23.48;55.85;102156.22;2203775;39;115676;-54
2021/06/07 03:07:23;;;;;;;;;;;;;;;23.48;56.31;102159.03;2203640;39;115548;-53
2021/06/07 03:08:56;;;;;;;;;;;;;;;23.48;55.80;102161.03;2204463;39;114578;-54
2021/06/07 03:10:28;;;;;;;;;;;;;;;23.46;56.08;102157.66;2205131;39;115534;-53
2021/06/07 03:12:02;;;;;;;;;;;;;;;23.48;55.90;102156.22;2201872;39;115429;-53
2021/06/07 03:13:35;;;;;;;;;;;;;;;23.49;56.10;102160.72;2203343;39;115415;-54
2021/06/07 03:15:08;;;;;;;;;;;;;;;23.49;56.10;102152.25;2203675;39;115567;-53
2021/06/07 03:16:40;;;;;;;;;;;;;;;23.48;56.28;102163.88;2200997;39;114490;-53
2021/06/07 03:18:12;;;;;;;;;;;;;;;23.48;56.30;102159.03;2203657;39;114904;-53
2021/06/07 03:19:44;;;;;;;;;;;;;;;23.48;56.47;102161.03;2203694;39;115633;-53
2021/06/07 03:21:16;;;;;;;;;;;;;;;23.51;56.12;102159.59;2199581;39;114543;-54
2021/06/07 03:22:48;;;;;;;;;;;;;;;23.48;56.22;102155.41;2201499;39;116567;-54
2021/06/07 03:24:21;;;;;;;;;;;;;;;23.49;56.29;102154.25;2206153;39;115597;-53
2021/06/07 03:25:53;;;;;;;;;;;;;;;23.51;56.35;102162.41;2201522;39;113637;-53
2021/06/07 03:27:25;;;;;;;;;;;;;;;23.50;56.27;102150.28;2197988;39;113805;-54
2021/06/07 03:28:57;;;;;;;;;;;;;;;23.51;56.38;102154.78;2199067;39;113873;-53
2021/06/07 03:30:29;;;;;;;;;;;;;;;23.50;56.74;102164.38;2200132;39;113635;-54
2021/06/07 03:32:01;;;;;;;;;;;;;;;23.49;56.64;102152.25;2194735;39;113907;-54
2021/06/07 03:33:34;;;;;;;;;;;;;;;23.49;56.49;102149.44;2200098;39;113999;-53
2021/06/07 03:35:08;;;;;;;;;;;;;;;23.51;56.20;102151.97;2196292;39;113826;-53
2021/06/07 03:36:40;;;;;;;;;;;;;;;23.53;56.31;102152.50;2200487;39;113829;-54
2021/06/07 03:38:15;;;;;;;;;;;;;;;23.52;56.32;102147.19;2202965;39;113610;-54
2021/06/07 03:39:47;;;;;;;;;;;;;;;23.52;56.71;102150.00;2201628;39;113698;-53
2021/06/07 03:41:19;;;;;;;;;;;;;;;23.51;56.50;102142.66;2193650;39;113895;-53
2021/06/07 03:42:51;;;;;;;;;;;;;;;23.52;56.49;102150.00;2200775;39;113642;-54
2021/06/07 03:44:23;;;;;;;;;;;;;;;23.51;56.18;102145.47;2198396;39;113660;-56
2021/06/07 03:45:56;;;;;;;;;;;;;;;23.54;56.14;102151.38;2197744;39;114131;-53
2021/06/07 03:47:28;;;;;;;;;;;;;;;23.52;56.46;102144.34;2199008;39;114019;-56
2021/06/07 03:49:00;;;;;;;;;;;;;;;23.55;56.28;102143.75;2202975;39;114801;-54
2021/06/07 03:50:34;;;;;;;;;;;;;;;23.54;56.12;102144.88;2197729;39;114918;-53
2021/06/07 03:52:06;;;;;;;;;;;;;;;23.53;56.19;102146.84;2202852;39;115181;-54
2021/06/07 03:53:38;;;;;;;;;;;;;;;23.55;56.17;102146.56;2208798;39;113760;-53
2021/06/07 03:55:11;;;;;;;;;;;;;;;23.54;56.11;102150.50;2198479;39;114782;-54
2021/06/07 03:56:43;;;;;;;;;;;;;;;23.51;56.30;102148.31;2195165;39;114163;-54
2021/06/07 03:58:15;;;;;;;;;;;;;;;23.50;56.18;102150.28;2193353;39;114761;-53
2021/06/07 03:59:47;;;;;;;;;;;;;;;23.48;56.12;102150.56;2197405;39;114911;-54
2021/06/07 04:01:19;;;;;;;;;;;;;;;23.50;56.22;102139.00;2189313;39;114031;-53
2021/06/07 04:02:52;;;;;;;;;;;;;;;23.51;56.21;102143.50;2190719;39;115048;-53
2021/06/07 04:04:23;;;;;;;;;;;;;;;23.47;55.98;102140.44;2194701;39;114876;-53
2021/06/07 04:05:55;;;;;;;;;;;;;;;23.47;56.13;102143.28;2206612;39;114765;-53
2021/06/07 04:07:27;;;;;;;;;;;;;;;23.47;55.95;102150.91;2197753;39;114983;-53
2021/06/07 04:09:02;;;;;;;;;;;;;;;23.47;56.12;102148.06;2200172;39;114807;-54
2021/06/07 04:10:34;;;;;;;;;;;;;;;23.46;56.55;102143.56;2203402;39;115451;-53
2021/06/07 04:12:06;;;;;;;;;;;;;;;23.51;56.22;102135.03;2205157;39;114924;-54
2021/06/07 04:13:39;;;;;;;;;;;;;;;23.50;56.27;102141.81;2196830;39;116254;-54
2021/06/07 04:15:11;;;;;;;;;;;;;;;23.47;56.18;102131.16;2204339;39;115811;-54
2021/06/07 04:16:43;;;;;;;;;;;;;;;23.47;56.49;102136.78;2198172;39;115512;-54
2021/06/07 04:18:16;;;;;;;;;;;;;;;23.45;56.42;102136.22;2204463;39;115707;-54
2021/06/07 04:19:48;;;;;;;;;;;;;;;23.45;56.37;102134.25;2200555;39;116346;-54
2021/06/07 04:21:20;;;;;;;;;;;;;;;23.46;56.69;102133.13;2202670;39;116140;-54
2021/06/07 04:22:52;;;;;;;;;;;;;;;23.47;56.28;102134.81;2204018;39;115992;-54
2021/06/07 04:24:24;;;;;;;;;;;;;;;23.47;56.29;102137.63;2195384;39;114207;-54
2021/06/07 04:25:56;;;;;;;;;;;;;;;23.46;56.11;102138.75;2193594;39;115841;-54
2021/06/07 04:27:28;;;;;;;;;;;;;;;23.46;56.14;102137.91;2202366;39;115420;-59
2021/06/07 04:29:00;;;;;;;;;;;;;;;23.47;56.46;102133.97;2196107;39;115535;-54
2021/06/07 04:30:33;;;;;;;;;;;;;;;23.48;56.52;102132.84;2202998;39;116503;-54
2021/06/07 04:32:06;;;;;;;;;;;;;;;23.46;56.61;102132.28;2203792;39;113756;-54
2021/06/07 04:33:38;;;;;;;;;;;;;;;23.45;56.46;102133.41;2204415;39;113641;-53
2021/06/07 04:35:10;;;;;;;;;;;;;;;23.43;56.28;102147.81;2202011;39;113613;-54
2021/06/07 04:36:42;;;;;;;;;;;;;;;23.40;56.62;102142.75;2191164;39;113715;-54
2021/06/07 04:38:14;;;;;;;;;;;;;;;23.43;56.79;102144.97;2202322;39;114301;-54
2021/06/07 04:39:47;;;;;;;;;;;;;;;23.44;56.47;102143.00;2197168;39;113701;-55
2021/06/07 04:41:19;;;;;;;;;;;;;;;23.43;56.58;102152.59;2199171;39;114014;-53
2021/06/07 04:42:51;;;;;;;;;;;;;;;23.42;56.85;102153.72;2205720;39;113866;-55
2021/06/07 04:44:23;;;;;;;;;;;;;;;23.42;56.56;102151.75;2203695;39;113757;-54
2021/06/07 04:45:55;;;;;;;;;;;;;;;23.41;56.88;102146.41;2193970;39;114080;-54
2021/06/07 04:47:27;;;;;;;;;;;;;;;23.41;56.68;102155.72;2201811;39;114204;-55
2021/06/07 04:48:59;;;;;;;;;;;;;;;23.40;57.04;102159.66;2204819;39;113601;-54
2021/06/07 04:50:32;;;;;;;;;;;;;;;23.41;56.95;102160.50;2197375;39;113875;-53
2021/06/07 04:52:04;;;;;;;;;;;;;;;23.41;57.46;102164.19;2198188;39;113566;-54
2021/06/07 04:53:36;;;;;;;;;;;;;;;23.41;57.20;102161.34;2195674;39;114920;-54
2021/06/07 04:55:09;;;;;;;;;;;;;;;23.44;56.84;102159.94;2201833;39;114761;-54
2021/06/07 04:56:41;;;;;;;;;;;;;;;23.42;57.02;102173.47;2196608;39;114764;-53
2021/06/07 04:58:16;;;;;;;;;;;;;;;23.43;57.16;102163.88;2195079;39;114891;-53
2021/06/07 04:59:48;;;;;;;;;;;;;;;23.41;57.27;102164.19;2202142;39;114849;-54
2021/06/07 05:01:20;;;;;;;;;;;;;;;23.41;57.37;102163.31;2197261;39;113921;-54
2021/06/07 05:02:52;;;;;;;;;;;;;;;23.42;56.93;102163.03;2201162;39;113991;-53
2021/06/07 05:04:24;;;;;;;;;;;;;;;23.41;57.42;102161.34;2196360;39;114053;-53
2021/06/07 05:05:58;;;;;;;;;;;;;;;23.41;56.62;102167.00;2197645;39;114666;-54
2021/06/07 05:07:29;;;;;;;;;;;;;;;23.39;57.26;102165.63;2197427;39;114924;-53
2021/06/07 05:09:02;;;;;;;;;;;;;;;23.38;57.00;102153.50;2202298;39;114323;-53
2021/06/07 05:10:48;;;;;;;;;;;;;;;23.41;56.90;102161.34;2198669;39;114758;-54
2021/06/07 05:12:25;;;;;;;;;;;;;;;23.39;57.01;102162.81;2204155;39;114123;-53
2021/06/07 05:13:58;;;;;;;;;;;;;;;23.38;57.44;102158.28;2207114;39;114877;-54
2021/06/07 05:15:30;;;;;;;;;;;;;;;23.37;57.51;102160.28;2194879;39;115969;-53
2021/06/07 05:17:03;;;;;;;;;;;;;;;23.40;57.25;102164.47;2200875;39;116450;-54
2021/06/07 05:18:35;;;;;;;;;;;;;;;23.38;57.09;102159.13;2191401;39;115521;-53
2021/06/07 05:20:09;;;;;;;;;;;;;;;23.39;57.08;102165.63;2198258;39;115866;-53
2021/06/07 05:21:41;;;;;;;;;;;;;;;23.39;57.16;102157.97;2197274;39;114934;-53
2021/06/07 05:23:13;;;;;;;;;;;;;;;23.38;57.10;102152.66;2200910;39;114623;-53
2021/06/07 05:24:46;;;;;;;;;;;;;;;23.39;57.07;102159.97;2203514;39;115803;-53
2021/06/07 05:26:17;;;;;;;;;;;;;;;23.39;56.94;102157.97;2202730;39;115536;-53
2021/06/07 05:27:50;;;;;;;;;;;;;;;23.39;57.02;102163.63;2207274;39;114699;-53
2021/06/07 05:29:22;;;;;;;;;;;;;;;23.41;57.24;102160.50;2203410;39;114722;-53
2021/06/07 05:30:54;;;;;;;;;;;;;;;23.40;56.97;102165.31;2202876;39;115541;-53
2021/06/07 05:32:27;;;;;;;;;;;;;;;23.42;56.80;102162.19;2195360;39;116143;-53
2021/06/07 05:33:59;;;;;;;;;;;;;;;23.39;57.05;102163.63;2193585;39;115623;-53
2021/06/07 05:35:33;;;;;;;;;;;;;;;23.40;56.71;102161.63;2198652;39;115695;-53
2021/06/07 05:37:06;;;;;;;;;;;;;;;23.41;57.04;102166.16;2196110;39;115126;-53
2021/06/07 05:38:38;;;;;;;;;;;;;;;23.41;56.75;102169.81;2194608;39;113978;-53
2021/06/07 05:40:10;;;;;;;;;;;;;;;23.41;56.75;102172.63;2200226;39;113669;-53
2021/06/07 05:41:42;;;;;;;;;;;;;;;23.41;56.96;102167.00;2193631;39;113695;-52
2021/06/07 05:43:18;;;;;;;;;;;;;;;23.40;57.07;102173.78;2201193;39;113614;-54
2021/06/07 05:44:50;;;;;;;;;;;;;;;23.39;56.87;102179.72;2196392;39;114250;-54
2021/06/07 05:46:22;;;;;;;;;;;;;;;23.40;56.96;102170.94;2195215;39;114159;-52
2021/06/07 05:47:57;;;;;;;;;;;;;;;23.39;57.02;102177.72;2197499;39;113672;-53
2021/06/07 05:49:29;;;;;;;;;;;;;;;23.39;57.37;102176.91;2197957;39;113987;-53
2021/06/07 05:51:01;;;;;;;;;;;;;;;23.41;57.10;102177.44;2207430;39;114565;-53
2021/06/07 05:52:33;;;;;;;;;;;;;;;23.37;57.66;102182.84;2199378;39;114668;-52
2021/06/07 05:54:05;;;;;;;;;;;;;;;23.39;57.42;102179.72;2209041;39;113649;-53
2021/06/07 05:55:39;;;;;;;;;;;;;;;23.40;57.66;102190.69;2204493;39;113964;-53
2021/06/07 05:57:11;;;;;;;;;;;;;;;23.38;57.41;102178.88;2193634;39;114142;-53
2021/06/07 05:58:43;;;;;;;;;;;;;;;23.39;57.13;102179.72;2209434;39;114033;-52
2021/06/07 06:00:16;;;;;;;;;;;;;;;23.39;57.56;102186.19;2203884;39;114885;-53
2021/06/07 06:01:48;;;;;;;;;;;;;;;23.38;57.26;102183.69;2204359;39;114934;-53
2021/06/07 06:03:20;;;;;;;;;;;;;;;23.39;57.15;102180.53;2206578;39;113785;-52
2021/06/07 06:04:52;;;;;;;;;;;;;;;23.37;57.14;102182.84;2206937;39;114774;-52
2021/06/07 06:06:25;;;;;;;;;;;;;;;23.37;57.02;102182.00;2204462;39;115547;-53
2021/06/07 06:07:57;;;;;;;;;;;;;;;23.38;56.94;102184.53;2199248;39;114062;-53
2021/06/07 06:09:28;;;;;;;;;;;;;;;23.38;57.18;102189.31;2197733;39;114915;-53
2021/06/07 06:11:00;;;;;;;;;;;;;;;23.38;56.81;102193.00;2202807;39;114206;-55
2021/06/07 06:12:52;;;;;;;;;;;;;;;23.37;57.14;102188.47;2203527;39;113812;-53
2021/06/07 06:14:25;;;;;;;;;;;;;;;23.36;56.98;102186.78;2203644;39;114989;-53
2021/06/07 06:15:57;;;;;;;;;;;;;;;23.38;56.88;102187.34;2203801;39;114298;-53
2021/06/07 06:17:29;;;;;;;;;;;;;;;23.36;56.98;102186.78;2206348;39;115078;-53
2021/06/07 06:19:01;;;;;;;;;;;;;;;23.36;57.50;102191.59;2203598;39;114817;-54
2021/06/07 06:20:33;;;;;;;;;;;;;;;23.37;56.87;102191.31;2206414;39;114790;-52
2021/06/07 06:22:06;;;;;;;;;;;;;;;23.36;57.03;102183.13;2204244;39;116130;-53
2021/06/07 06:23:39;;;;;;;;;;;;;;;23.37;57.18;102196.09;2198173;39;115835;-53
2021/06/07 06:25:11;;;;;;;;;;;;;;;23.36;56.84;102198.06;2201639;39;116229;-52
2021/06/07 06:26:44;;;;;;;;;;;;;;;23.35;57.16;102195.53;2204412;39;114985;-53
2021/06/07 06:28:16;;;;;;;;;;;;;;;23.35;57.12;102184.25;2201883;39;115746;-53
2021/06/07 06:29:56;;;;;;;;;;;;;;;23.36;57.23;102188.75;2205427;39;114733;-53
2021/06/07 06:31:31;;;;;;;;;;;;;;;23.36;56.71;102188.75;2204668;39;116312;-53
2021/06/07 06:33:03;;;;;;;;;;;;;;;23.37;57.02;102191.31;2199466;39;115614;-53
2021/06/07 06:34:38;;;;;;;;;;;;;;;23.38;56.65;102193.00;2202525;39;115613;-53
2021/06/07 06:36:10;;;;;;;;;;;;;;;23.36;57.00;102192.44;2195448;39;115480;-53
2021/06/07 06:37:44;;;;;;;;;;;;;;;23.36;56.66;102195.25;2204035;39;115531;-53
2021/06/07 06:39:16;;;;;;;;;;;;;;;23.40;56.34;102198.31;2204295;39;115499;-53
2021/06/07 06:40:48;;;;;;;;;;;;;;;23.41;56.58;102197.19;2198539;39;115616;-53
2021/06/07 06:42:20;;;;;;;;;;;;;;;23.39;57.05;102196.66;2206391;39;115519;-55
2021/06/07 06:43:52;;;;;;;;;;;;;;;23.39;56.58;102194.66;2202490;39;113806;-53
2021/06/07 06:45:24;;;;;;;;;;;;;;;23.38;56.95;102190.16;2206844;39;113697;-54
2021/06/07 06:46:57;;;;;;;;;;;;;;;23.35;56.55;102190.75;2191549;39;114500;-53
2021/06/07 06:48:31;;;;;;;;;;;;;;;23.39;57.33;102191.81;2201470;39;114031;-53
2021/06/07 06:50:05;;;;;;;;;;;;;;;23.39;57.20;102202.28;2204296;39;114137;-53
2021/06/07 06:51:37;;;;;;;;;;;;;;;23.38;57.41;102200.59;2196729;39;113969;-53
2021/06/07 06:53:13;;;;;;;;;;;;;;;23.39;54.45;102197.47;2201451;39;113857;-52
2021/06/07 06:54:44;;;;;;;;;;;;;;;23.35;54.21;102193.56;2200146;39;113596;-53
2021/06/07 06:56:17;;;;;;;;;;;;;;;23.23;53.30;102198.78;2203192;39;114270;-55
2021/06/07 06:57:49;;;;;;;;;;;;;;;23.07;52.97;102193.56;2200820;39;113723;-53
2021/06/07 06:59:21;;;;;;;;;;;;;;;22.99;52.76;102203.47;2195502;39;113772;-52
2021/06/07 07:00:53;;;;;;;;;;;;;;;23.02;53.65;102192.50;2202300;39;113899;-52
2021/06/07 07:02:28;;;;;;;;;;;;;;;23.04;53.81;102190.19;2197357;39;113640;-53
2021/06/07 07:04:01;;;;;;;;;;;;;;;23.04;54.17;102198.66;2200412;39;114054;-53
2021/06/07 07:05:33;;;;;;;;;;;;;;;23.03;54.08;102198.97;2191964;39;113891;-53
2021/06/07 07:07:06;;;;;;;;;;;;;;;23.03;54.05;102193.34;2203450;39;113902;-53
2021/06/07 07:08:41;;;;;;;;;;;;;;;23.03;54.08;102196.97;2202649;39;114051;-54
2021/06/07 07:10:13;;;;;;;;;;;;;;;23.02;53.87;102195.31;2203088;39;114857;-53
2021/06/07 07:11:45;;;;;;;;;;;;;;;23.02;54.00;102194.47;2196226;39;114117;-53
2021/06/07 07:13:19;;;;;;;;;;;;;;;23.04;53.88;102192.16;2205548;39;114166;-53
2021/06/07 07:14:51;;;;;;;;;;;;;;;23.01;53.98;102196.44;2205295;39;115030;-53
2021/06/07 07:16:24;;;;;;;;;;;;;;;23.01;54.07;102196.44;2200210;39;113948;-56
2021/06/07 07:17:56;;;;;;;;;;;;;;;23.05;54.24;102193.84;2201781;39;113901;-54
2021/06/07 07:19:29;;;;;;;;;;;;;;;23.07;54.11;102190.75;2194312;39;113810;-52
2021/06/07 07:21:02;;;;;;;;;;;;;;;23.03;53.83;102191.31;2198089;39;115165;-53
2021/06/07 07:22:34;;;;;;;;;;;;;;;23.03;53.88;102190.50;2201367;39;114970;-53
2021/06/07 07:24:16;;;;;;;;;;;;;;;23.04;53.82;102189.34;2204210;39;115434;-52
2021/06/07 07:25:50;;;;;;;;;;;;;;;23.02;53.84;102194.47;2193455;39;114036;-53
2021/06/07 07:27:21;;;;;;;;;;;;;;;23.03;53.94;102190.50;2199688;39;114172;-53
2021/06/07 07:28:53;;;;;;;;;;;;;;;23.02;53.77;102192.50;2198958;39;114619;-52
2021/06/07 07:30:27;;;;;;;;;;;;;;;23.02;53.84;102191.63;2201587;39;114598;-53
2021/06/07 07:31:59;;;;;;;;;;;;;;;23.02;53.93;102194.47;2197564;39;114737;-52
2021/06/07 07:33:37;;;;;;;;;;;;;;;23.01;53.86;102190.81;2205843;39;115557;-52
2021/06/07 07:35:10;;;;;;;;;;;;;;;23.00;54.01;102197.56;2201988;39;115462;-52
2021/06/07 07:36:41;;;;;;;;;;;;;;;23.00;53.64;102197.56;2201513;39;116045;-53
2021/06/07 07:38:13;;;;;;;;;;;;;;;23.01;53.70;102196.44;2201689;39;114385;-52
2021/06/07 07:39:45;;;;;;;;;;;;;;;23.02;53.57;102191.63;2202653;39;115183;-53
2021/06/07 07:41:17;;;;;;;;;;;;;;;23.00;53.65;102185.44;2189056;39;115533;-53
2021/06/07 07:42:51;;;;;;;;;;;;;;;23.01;53.72;102192.78;2190090;39;115624;-53
2021/06/07 07:44:23;;;;;;;;;;;;;;;23.00;53.43;102196.72;2197870;39;115045;-53
2021/06/07 07:45:55;;;;;;;;;;;;;;;23.01;53.50;102192.78;2206212;39;115707;-53
2021/06/07 07:47:28;;;;;;;;;;;;;;;23.02;53.49;102200.09;2205270;39;114384;-53
2021/06/07 07:48:59;;;;;;;;;;;;;;;23.03;53.29;102198.97;2200904;39;115707;-52
2021/06/07 07:50:32;;;;;;;;;;;;;;;22.99;53.33;102201.50;2203058;39;113927;-53
2021/06/07 07:52:06;;;;;;;;;;;;;;;22.96;52.12;102201.28;2198223;39;114199;-53